Time;durP1;ratioP1;P1;durP2;ratioP2;P2;SDS_P1;SDS_P2;PMS_P1;PMS_P2;Temp;Humidity;BMP_temperature;BMP_pressure;BME280_temperature;BME280_humidity;BME280_pressure;Samples;Min_cycle;Max_cycle;Signal;HPM_P1;HPM_P2
2024/03/06 00:02:10;;;;;;;4.87;3.93;;;;;;;;;;6320750;28;20460;-75
2024/03/06 00:05:10;;;;;;;5.70;4.30;;;;;;;;;;6322315;28;20078;-75
2024/03/06 00:08:11;;;;;;;6.43;4.47;;;;;;;;;;6321486;28;20085;-75
2024/03/06 00:11:11;;;;;;;6.27;4.37;;;;;;;;;;6321986;28;20020;-75
2024/03/06 00:14:12;;;;;;;5.60;4.30;;;;;;;;;;6320420;28;20110;-75
2024/03/06 00:17:12;;;;;;;6.18;4.13;;;;;;;;;;6323619;28;20081;-75
2024/03/06 00:20:13;;;;;;;5.53;4.13;;;;;;;;;;6322115;28;20032;-75
2024/03/06 00:23:14;;;;;;;5.50;4.40;;;;;;;;;;6323187;28;20103;-75
2024/03/06 00:26:14;;;;;;;5.20;4.00;;;;;;;;;;6322450;28;20051;-75
2024/03/06 00:29:15;;;;;;;6.23;4.13;;;;;;;;;;6321622;28;20020;-75
2024/03/06 00:32:15;;;;;;;4.63;3.53;;;;;;;;;;6320865;28;20045;-75
2024/03/06 00:35:15;;;;;;;5.67;3.80;;;;;;;;;;6319961;28;20032;-74
2024/03/06 00:38:15;;;;;;;4.37;3.77;;;;;;;;;;6323394;28;20028;-74
2024/03/06 00:41:16;;;;;;;5.43;3.77;;;;;;;;;;6317428;28;20039;-74
2024/03/06 00:44:17;;;;;;;5.77;4.23;;;;;;;;;;6321463;28;20031;-75
2024/03/06 00:47:17;;;;;;;6.15;4.18;;;;;;;;;;6320495;28;20021;-75
2024/03/06 00:50:18;;;;;;;5.47;3.80;;;;;;;;;;6319776;28;20446;-75
2024/03/06 00:53:18;;;;;;;6.60;4.40;;;;;;;;;;6320602;28;20047;-75
2024/03/06 00:56:18;;;;;;;6.60;4.07;;;;;;;;;;6321055;28;20039;-75
2024/03/06 00:59:19;;;;;;;5.47;4.47;;;;;;;;;;6319522;28;20016;-75
2024/03/06 01:02:19;;;;;;;7.00;4.67;;;;;;;;;;6319029;28;20024;-74
2024/03/06 01:05:19;;;;;;;5.43;4.17;;;;;;;;;;6320566;28;20027;-75
2024/03/06 01:08:19;;;;;;;5.83;4.10;;;;;;;;;;6320713;28;20016;-75
2024/03/06 01:11:20;;;;;;;4.53;3.63;;;;;;;;;;6321605;28;20027;-75
2024/03/06 01:14:20;;;;;;;4.87;4.37;;;;;;;;;;6321619;28;20028;-74
2024/03/06 01:17:20;;;;;;;5.87;4.10;;;;;;;;;;6316040;28;20056;-75
2024/03/06 01:20:20;;;;;;;4.97;4.03;;;;;;;;;;6314286;28;20035;-75
2024/03/06 01:23:21;;;;;;;6.87;4.57;;;;;;;;;;6311782;28;20024;-75
2024/03/06 01:26:21;;;;;;;6.43;4.63;;;;;;;;;;6318556;28;20097;-75
2024/03/06 01:29:21;;;;;;;7.43;4.57;;;;;;;;;;6318872;28;20041;-75
2024/03/06 01:32:21;;;;;;;5.87;4.53;;;;;;;;;;6319537;28;20019;-75
2024/03/06 01:35:23;;;;;;;6.23;4.50;;;;;;;;;;6318261;28;20646;-75
2024/03/06 01:38:23;;;;;;;;;;;;;;;;;;6318500;28;20089;-74
2024/03/06 01:41:24;;;;;;;5.10;3.60;;;;;;;;;;6319029;28;19923;-75
2024/03/06 01:44:25;;;;;;;;;;;;;;;;;;6321288;28;20062;-75
2024/03/06 01:47:25;;;;;;;5.18;3.05;;;;;;;;;;6318035;28;20291;-75
2024/03/06 01:50:25;;;;;;;5.87;4.20;;;;;;;;;;6318106;28;20024;-75
2024/03/06 01:53:27;;;;;;;4.97;3.93;;;;;;;;;;6312436;28;20129;-75
2024/03/06 01:56:27;;;;;;;;;;;;;;;;;;6319376;28;20028;-75
2024/03/06 01:59:28;;;;;;;5.70;3.58;;;;;;;;;;6319932;28;20262;-75
2024/03/06 02:02:28;;;;;;;6.78;4.78;;;;;;;;;;6320103;28;20074;-75
2024/03/06 02:05:30;;;;;;;6.83;4.57;;;;;;;;;;6319152;28;20036;-74
2024/03/06 02:08:32;;;;;;;7.18;5.18;;;;;;;;;;6319729;28;20034;-74
2024/03/06 02:11:32;;;;;;;7.80;5.72;;;;;;;;;;6317586;28;20460;-75
2024/03/06 02:14:32;;;;;;;7.97;5.77;;;;;;;;;;6320554;28;20043;-74
2024/03/06 02:17:34;;;;;;;8.10;5.80;;;;;;;;;;6320102;28;20400;-74
2024/03/06 02:20:34;;;;;;;8.45;5.38;;;;;;;;;;6318139;28;20094;-75
2024/03/06 02:23:35;;;;;;;8.27;5.80;;;;;;;;;;6318659;28;20024;-74
2024/03/06 02:26:35;;;;;;;8.37;5.97;;;;;;;;;;6318527;28;20081;-74
2024/03/06 02:29:35;;;;;;;9.27;6.13;;;;;;;;;;6318259;28;20377;-74
2024/03/06 02:32:35;;;;;;;8.67;6.30;;;;;;;;;;6315814;28;20032;-76
2024/03/06 02:35:36;;;;;;;7.97;6.20;;;;;;;;;;6317886;28;20032;-74
2024/03/06 02:38:36;;;;;;;9.10;5.77;;;;;;;;;;6320589;28;20028;-74
2024/03/06 02:41:37;;;;;;;10.83;6.80;;;;;;;;;;6319688;28;20032;-73
2024/03/06 02:44:37;;;;;;;10.23;6.27;;;;;;;;;;6311326;28;20052;-75
2024/03/06 02:47:37;;;;;;;9.57;6.37;;;;;;;;;;6320863;28;20016;-74
2024/03/06 02:50:37;;;;;;;8.57;6.10;;;;;;;;;;6324182;28;20028;-74
2024/03/06 02:53:38;;;;;;;10.27;7.00;;;;;;;;;;6325362;28;20032;-74
2024/03/06 02:56:38;;;;;;;8.53;6.17;;;;;;;;;;6323427;28;20119;-74
2024/03/06 02:59:41;;;;;;;9.43;6.77;;;;;;;;;;6325430;28;20085;-74
2024/03/06 03:02:42;;;;;;;9.80;6.68;;;;;;;;;;6324319;28;20157;-75
2024/03/06 03:05:42;;;;;;;10.20;6.73;;;;;;;;;;6323558;28;20373;-74
2024/03/06 03:08:42;;;;;;;11.17;7.20;;;;;;;;;;6325558;28;20028;-75
2024/03/06 03:11:43;;;;;;;9.17;6.33;;;;;;;;;;6324804;28;20032;-74
2024/03/06 03:14:44;;;;;;;9.60;6.70;;;;;;;;;;6325444;28;20024;-74
2024/03/06 03:17:44;;;;;;;11.13;6.77;;;;;;;;;;6321719;28;20055;-73
2024/03/06 03:20:44;;;;;;;10.13;6.77;;;;;;;;;;6320860;28;20044;-74
2024/03/06 03:23:44;;;;;;;9.13;6.53;;;;;;;;;;6322598;28;20028;-74
2024/03/06 03:26:44;;;;;;;9.70;6.40;;;;;;;;;;6322612;28;20048;-74
2024/03/06 03:29:45;;;;;;;8.63;6.50;;;;;;;;;;6324763;28;20031;-74
2024/03/06 03:32:45;;;;;;;9.63;6.80;;;;;;;;;;6321439;28;20031;-74
2024/03/06 03:35:45;;;;;;;9.23;6.73;;;;;;;;;;6318109;28;20076;-73
2024/03/06 03:38:46;;;;;;;10.63;7.47;;;;;;;;;;6321662;28;20119;-74
2024/03/06 03:41:47;;;;;;;11.13;6.97;;;;;;;;;;6320713;28;20032;-74
2024/03/06 03:44:47;;;;;;;10.50;6.90;;;;;;;;;;6322371;28;20028;-75
2024/03/06 03:47:47;;;;;;;9.97;7.27;;;;;;;;;;6324271;28;20032;-73
2024/03/06 03:50:47;;;;;;;12.63;8.20;;;;;;;;;;6318947;28;20024;-74
2024/03/06 03:53:50;;;;;;;10.70;7.17;;;;;;;;;;6321517;28;20073;-73
2024/03/06 03:56:51;;;;;;;11.35;7.60;;;;;;;;;;6324307;28;20016;-74
2024/03/06 03:59:51;;;;;;;11.97;7.60;;;;;;;;;;6323215;28;20050;-74
2024/03/06 04:02:51;;;;;;;9.37;7.27;;;;;;;;;;6318633;28;20385;-74
2024/03/06 04:05:52;;;;;;;9.73;7.03;;;;;;;;;;6318504;28;20504;-74
2024/03/06 04:08:52;;;;;;;12.27;7.43;;;;;;;;;;6314543;28;20028;-74
2024/03/06 04:11:52;;;;;;;8.77;6.93;;;;;;;;;;6323039;28;20028;-75
2024/03/06 04:14:52;;;;;;;12.40;8.00;;;;;;;;;;6324059;28;20028;-74
2024/03/06 04:17:53;;;;;;;10.30;7.47;;;;;;;;;;6322641;28;20101;-74
2024/03/06 04:20:53;;;;;;;10.00;7.40;;;;;;;;;;6319900;28;20385;-73
2024/03/06 04:23:53;;;;;;;11.57;7.87;;;;;;;;;;6316787;28;20465;-74
2024/03/06 04:26:53;;;;;;;11.40;7.53;;;;;;;;;;6321690;28;20052;-74
2024/03/06 04:29:54;;;;;;;11.67;7.03;;;;;;;;;;6322010;28;20145;-74
2024/03/06 04:32:54;;;;;;;10.13;7.07;;;;;;;;;;6321772;28;20020;-74
2024/03/06 04:35:54;;;;;;;10.20;6.90;;;;;;;;;;6321901;28;20016;-74
2024/03/06 04:38:55;;;;;;;9.33;7.80;;;;;;;;;;6321096;28;20169;-73
2024/03/06 04:41:56;;;;;;;10.88;7.35;;;;;;;;;;6320625;28;20035;-75
2024/03/06 04:44:56;;;;;;;12.15;7.78;;;;;;;;;;6321662;28;20039;-75
2024/03/06 04:47:56;;;;;;;11.97;7.83;;;;;;;;;;6304429;28;20434;-74
2024/03/06 04:50:57;;;;;;;12.00;7.57;;;;;;;;;;6319974;28;20077;-74
2024/03/06 04:53:57;;;;;;;10.80;7.43;;;;;;;;;;6320967;28;20037;-74
2024/03/06 04:56:57;;;;;;;11.17;7.70;;;;;;;;;;6321133;28;20032;-74
2024/03/06 04:59:58;;;;;;;11.07;6.93;;;;;;;;;;6321088;28;20503;-73
2024/03/06 05:02:58;;;;;;;14.10;8.50;;;;;;;;;;6321864;28;20090;-74
2024/03/06 05:05:58;;;;;;;11.03;8.17;;;;;;;;;;6316759;28;20040;-74
2024/03/06 05:08:59;;;;;;;12.43;7.60;;;;;;;;;;6320864;28;20024;-75
2024/03/06 05:11:59;;;;;;;11.80;6.90;;;;;;;;;;6322847;28;20023;-74
2024/03/06 05:14:59;;;;;;;9.70;7.07;;;;;;;;;;6317329;28;20093;-75
2024/03/06 05:18:00;;;;;;;11.20;7.47;;;;;;;;;;6323135;28;20024;-74
2024/03/06 05:21:00;;;;;;;10.83;7.57;;;;;;;;;;6318522;28;20024;-74
2024/03/06 05:24:01;;;;;;;12.63;7.23;;;;;;;;;;6321789;28;20111;-74
2024/03/06 05:27:01;;;;;;;11.77;7.20;;;;;;;;;;6296995;28;20189;-74
2024/03/06 05:30:04;;;;;;;12.53;7.83;;;;;;;;;;6296051;28;20477;-74
2024/03/06 05:33:04;;;;;;;14.45;7.07;;;;;;;;;;6294577;28;20029;-75
2024/03/06 05:36:05;;;;;;;11.33;7.83;;;;;;;;;;6292666;28;23001;-75
2024/03/06 05:39:07;;;;;;;11.57;7.87;;;;;;;;;;6288840;28;20029;-76
2024/03/06 05:42:07;;;;;;;12.07;7.30;;;;;;;;;;6294178;28;20477;-77
2024/03/06 05:45:10;;;;;;;10.27;7.47;;;;;;;;;;6294860;28;20055;-77
2024/03/06 05:48:10;;;;;;;9.60;7.10;;;;;;;;;;6294633;28;20028;-75
2024/03/06 05:51:11;;;;;;;10.93;7.23;;;;;;;;;;6292060;28;20382;-74
2024/03/06 05:54:11;;;;;;;12.00;7.07;;;;;;;;;;6290812;28;20435;-74
2024/03/06 05:57:11;;;;;;;10.10;7.37;;;;;;;;;;6294173;28;20492;-75
2024/03/06 06:00:12;;;;;;;10.80;6.87;;;;;;;;;;6295826;28;20043;-74
2024/03/06 06:03:12;;;;;;;10.13;6.57;;;;;;;;;;6295246;28;20381;-75
2024/03/06 06:06:14;;;;;;;11.03;6.63;;;;;;;;;;6287642;28;20104;-74
2024/03/06 06:09:15;;;;;;;8.40;6.45;;;;;;;;;;6293792;28;20032;-75
2024/03/06 06:12:15;;;;;;;12.23;7.40;;;;;;;;;;6293513;28;20056;-74
2024/03/06 06:15:16;;;;;;;10.00;6.63;;;;;;;;;;6293241;28;20028;-74
2024/03/06 06:18:16;;;;;;;10.30;6.47;;;;;;;;;;6287436;28;20032;-74
2024/03/06 06:21:16;;;;;;;8.80;6.77;;;;;;;;;;6291021;28;20049;-74
2024/03/06 06:24:17;;;;;;;9.00;6.60;;;;;;;;;;6291766;28;20024;-74
2024/03/06 06:27:17;;;;;;;8.47;6.37;;;;;;;;;;6318074;28;20103;-74
2024/03/06 06:30:17;;;;;;;8.93;5.97;;;;;;;;;;6317251;28;20115;-74
2024/03/06 06:33:20;;;;;;;9.60;6.20;;;;;;;;;;6297884;28;20016;-74
2024/03/06 06:36:21;;;;;;;10.77;6.03;;;;;;;;;;6314055;28;20040;-73
2024/03/06 06:39:21;;;;;;;7.97;5.83;;;;;;;;;;6318939;28;20026;-73
2024/03/06 06:42:22;;;;;;;9.57;6.27;;;;;;;;;;6300735;28;20008;-74
2024/03/06 06:45:22;;;;;;;10.57;6.40;;;;;;;;;;6319907;28;20397;-73
2024/03/06 06:48:22;;;;;;;9.00;5.80;;;;;;;;;;6320309;28;20020;-74
2024/03/06 06:51:23;;;;;;;7.37;5.13;;;;;;;;;;6299732;28;20464;-73
2024/03/06 06:54:23;;;;;;;7.57;5.20;;;;;;;;;;6316490;28;20013;-76
2024/03/06 06:57:24;;;;;;;8.40;5.63;;;;;;;;;;6319342;28;20094;-76
2024/03/06 07:00:25;;;;;;;7.93;5.40;;;;;;;;;;6318710;28;20035;-77
2024/03/06 07:03:29;;;;;;;9.00;5.63;;;;;;;;;;6317001;28;20024;-76
2024/03/06 07:06:30;;;;;;;7.05;4.93;;;;;;;;;;6315351;28;20035;-76
2024/03/06 07:09:30;;;;;;;9.53;5.47;;;;;;;;;;6318441;28;20469;-76
2024/03/06 07:12:30;;;;;;;7.77;5.27;;;;;;;;;;6319861;28;20340;-76
2024/03/06 07:15:31;;;;;;;6.77;4.83;;;;;;;;;;6318433;28;20036;-76
2024/03/06 07:18:31;;;;;;;6.87;5.10;;;;;;;;;;6294959;28;20516;-76
2024/03/06 07:21:31;;;;;;;8.77;5.10;;;;;;;;;;6303354;28;20043;-77
2024/03/06 07:24:32;;;;;;;6.77;4.83;;;;;;;;;;6316156;28;20091;-77
2024/03/06 07:27:32;;;;;;;7.50;5.03;;;;;;;;;;6313163;28;20056;-76
2024/03/06 07:30:32;;;;;;;6.67;4.87;;;;;;;;;;6298183;28;20028;-76
2024/03/06 07:33:34;;;;;;;7.73;5.03;;;;;;;;;;6323121;28;20020;-77
2024/03/06 07:36:35;;;;;;;7.30;4.53;;;;;;;;;;6323984;28;20021;-77
2024/03/06 07:39:35;;;;;;;6.75;5.00;;;;;;;;;;6324385;28;20063;-75
2024/03/06 07:42:35;;;;;;;8.33;5.20;;;;;;;;;;6326716;28;20024;-76
2024/03/06 07:45:36;;;;;;;6.60;5.07;;;;;;;;;;6325944;28;20373;-77
2024/03/06 07:48:44;;;;;;;7.63;5.10;;;;;;;;;;6325168;28;20457;-75
2024/03/06 07:51:44;;;;;;;7.75;5.38;;;;;;;;;;6324386;28;20028;-76
2024/03/06 07:54:45;;;;;;;7.93;4.83;;;;;;;;;;6325795;28;20776;-75
2024/03/06 07:57:45;;;;;;;6.25;4.80;;;;;;;;;;6324619;28;20016;-76
2024/03/06 08:00:46;;;;;;;6.43;4.73;;;;;;;;;;6325201;28;20040;-75
2024/03/06 08:03:46;;;;;;;6.40;5.10;;;;;;;;;;6325810;28;20028;-75
2024/03/06 08:06:46;;;;;;;6.40;4.93;;;;;;;;;;6321049;28;20016;-74
2024/03/06 08:09:47;;;;;;;6.10;4.30;;;;;;;;;;6305938;28;20305;-74
2024/03/06 08:12:50;;;;;;;7.67;5.27;;;;;;;;;;6325072;28;20028;-74
2024/03/06 08:15:51;;;;;;;8.40;5.22;;;;;;;;;;6323608;28;20469;-74
2024/03/06 08:18:51;;;;;;;6.35;4.80;;;;;;;;;;6306893;28;20031;-74
2024/03/06 08:21:51;;;;;;;6.40;5.10;;;;;;;;;;6318050;28;20051;-74
2024/03/06 08:24:51;;;;;;;6.70;4.80;;;;;;;;;;6320609;28;20504;-74
2024/03/06 08:27:52;;;;;;;6.17;4.27;;;;;;;;;;6321434;28;20031;-74
2024/03/06 08:30:52;;;;;;;6.57;4.53;;;;;;;;;;6319057;28;20077;-74
2024/03/06 08:33:52;;;;;;;7.57;5.07;;;;;;;;;;6321339;28;20472;-74
2024/03/06 08:36:55;;;;;;;9.10;6.47;;;;;;;;;;6319356;28;20024;-74
2024/03/06 08:39:55;;;;;;;6.50;5.45;;;;;;;;;;5962476;28;10000544;-74
2024/03/06 08:42:56;;;;;;;7.63;5.03;;;;;;;;;;6304415;28;20086;-74
2024/03/06 08:45:56;;;;;;;5.75;4.95;;;;;;;;;;6322665;28;20020;-74
2024/03/06 08:48:56;;;;;;;6.23;4.87;;;;;;;;;;6321975;28;20107;-74
2024/03/06 08:51:57;;;;;;;6.40;4.60;;;;;;;;;;6312836;28;20023;-74
2024/03/06 08:54:57;;;;;;;6.17;4.43;;;;;;;;;;6322567;28;20020;-75
2024/03/06 08:57:58;;;;;;;6.83;4.40;;;;;;;;;;6318949;28;20392;-74
2024/03/06 09:00:58;;;;;;;6.88;4.90;;;;;;;;;;6321732;28;20071;-74
2024/03/06 09:03:59;;;;;;;6.50;4.67;;;;;;;;;;6322312;28;20031;-74
2024/03/06 09:06:59;;;;;;;6.03;4.53;;;;;;;;;;6322776;28;20366;-73
2024/03/06 09:09:59;;;;;;;6.07;4.83;;;;;;;;;;6323207;28;20048;-74
2024/03/06 09:12:59;;;;;;;5.23;4.30;;;;;;;;;;6321792;28;20060;-74
2024/03/06 09:16:00;;;;;;;7.23;5.03;;;;;;;;;;6320564;28;20055;-75
2024/03/06 09:19:00;;;;;;;7.43;4.90;;;;;;;;;;6307298;28;20452;-76
2024/03/06 09:22:01;;;;;;;7.00;5.20;;;;;;;;;;6304448;28;20108;-76
2024/03/06 09:25:01;;;;;;;6.20;4.70;;;;;;;;;;6322880;28;20127;-76
2024/03/06 09:28:04;;;;;;;6.28;5.28;;;;;;;;;;6323918;28;20076;-76
2024/03/06 09:31:04;;;;;;;6.60;5.05;;;;;;;;;;6321018;28;20388;-76
2024/03/06 09:34:05;;;;;;;6.37;4.90;;;;;;;;;;6320823;28;20115;-76
2024/03/06 09:37:05;;;;;;;7.47;4.87;;;;;;;;;;6303481;28;20107;-76
2024/03/06 09:40:07;;;;;;;6.07;4.70;;;;;;;;;;6315446;28;20489;-77
2024/03/06 09:43:08;;;;;;;5.97;4.90;;;;;;;;;;6312569;28;20028;-76
2024/03/06 09:46:10;;;;;;;6.18;4.97;;;;;;;;;;6285118;28;20052;-76
2024/03/06 09:49:11;;;;;;;6.27;4.70;;;;;;;;;;6318983;28;20035;-76
2024/03/06 09:52:12;;;;;;;6.70;4.90;;;;;;;;;;6321543;28;20381;-76
2024/03/06 09:55:13;;;;;;;5.47;4.63;;;;;;;;;;6323665;28;20035;-76
2024/03/06 09:58:15;;;;;;;7.40;4.80;;;;;;;;;;6306932;28;20008;-76
2024/03/06 10:01:16;;;;;;;7.25;5.55;;;;;;;;;;6310721;28;20115;-76
2024/03/06 10:04:18;;;;;;;6.63;4.32;;;;;;;;;;6323681;28;20035;-77
2024/03/06 10:07:18;;;;;;;7.13;5.32;;;;;;;;;;6323483;28;20090;-76
2024/03/06 10:10:25;;;;;;;5.05;4.20;;;;;;;;;;6323846;28;20062;-76
2024/03/06 10:13:25;;;;;;;6.20;4.35;;;;;;;;;;6322672;28;20027;-74
2024/03/06 10:16:25;;;;;;;5.23;4.17;;;;;;;;;;6313928;28;20020;-76
2024/03/06 10:19:30;;;;;;;5.00;4.17;;;;;;;;;;6323812;28;20280;-77
2024/03/06 10:22:30;;;;;;;4.53;4.07;;;;;;;;;;6322609;28;20032;-76
2024/03/06 10:25:30;;;;;;;6.23;4.40;;;;;;;;;;6322178;28;20044;-79
2024/03/06 10:28:32;;;;;;;5.60;3.90;;;;;;;;;;6321858;28;20039;-77
2024/03/06 10:31:32;;;;;;;;;;;;;;;;;;6319616;28;20016;-77
2024/03/06 10:34:32;;;;;;;4.63;3.23;;;;;;;;;;6321342;28;20315;-76
2024/03/06 10:37:34;;;;;;;5.37;3.50;;;;;;;;;;6321320;28;20019;-77
2024/03/06 10:40:35;;;;;;;5.65;4.15;;;;;;;;;;6321424;28;20020;-78
2024/03/06 10:43:35;;;;;;;;;;;;;;;;;;6295269;28;20533;-75
2024/03/06 10:46:36;;;;;;;4.95;3.60;;;;;;;;;;6320256;28;19933;-75
2024/03/06 10:49:36;;;;;;;4.70;3.77;;;;;;;;;;6321196;28;20026;-74
2024/03/06 10:52:38;;;;;;;6.17;4.17;;;;;;;;;;6320974;28;20242;-75
2024/03/06 10:55:38;;;;;;;6.13;4.05;;;;;;;;;;6312819;28;20016;-75
2024/03/06 10:58:40;;;;;;;6.10;3.95;;;;;;;;;;6320022;28;20043;-74
2024/03/06 11:01:43;;;;;;;5.22;4.00;;;;;;;;;;6321839;28;20028;-74
2024/03/06 11:04:44;;;;;;;6.18;4.20;;;;;;;;;;6301138;28;20071;-75
2024/03/06 11:07:44;;;;;;;6.20;4.20;;;;;;;;;;6320452;28;20032;-75
2024/03/06 11:10:45;;;;;;;4.93;3.80;;;;;;;;;;6326876;28;20266;-75
2024/03/06 11:13:45;;;;;;;5.97;4.10;;;;;;;;;;6326547;28;20065;-76
2024/03/06 11:17:15;;;;;;;4.57;3.53;;;;;;;;;;6308402;28;20028;-75
2024/03/06 11:20:19;;;;;;;4.55;3.38;;;;;;;;;;6303170;28;20055;-75
2024/03/06 11:23:20;;;;;;;5.55;4.32;;;;;;;;;;6326234;28;20032;-75
2024/03/06 11:26:20;;;;;;;5.45;3.90;;;;;;;;;;6307135;28;20040;-75
2024/03/06 11:29:21;;;;;;;4.80;3.77;;;;;;;;;;6326205;28;20028;-74
2024/03/06 11:32:22;;;;;;;5.10;4.07;;;;;;;;;;6324253;28;20035;-74
2024/03/06 11:35:22;;;;;;;5.35;4.13;;;;;;;;;;6324967;28;20513;-80
2024/03/06 11:38:24;;;;;;;5.30;4.27;;;;;;;;;;6326375;28;20020;-80
2024/03/06 11:41:25;;;;;;;5.28;4.10;;;;;;;;;;6324711;28;20034;-80
2024/03/06 11:44:26;;;;;;;6.65;4.35;;;;;;;;;;6326043;28;20024;-80
2024/03/06 11:47:26;;;;;;;6.55;4.60;;;;;;;;;;6326185;28;20035;-80
2024/03/06 11:50:31;;;;;;;5.40;4.17;;;;;;;;;;6324973;28;20024;-79
2024/03/06 11:53:33;;;;;;;5.35;4.20;;;;;;;;;;6324253;28;20020;-80
2024/03/06 11:56:33;;;;;;;;;;;;;;;;;;6297782;28;20059;-80
2024/03/06 11:59:35;;;;;;;4.38;3.03;;;;;;;;;;6326081;28;20261;-80
2024/03/06 12:02:36;;;;;;;4.97;3.83;;;;;;;;;;6325731;28;20544;-79
2024/03/06 12:05:37;;;;;;;5.85;4.03;;;;;;;;;;6312879;28;20492;-80
2024/03/06 12:08:39;;;;;;;5.43;3.97;;;;;;;;;;6325910;28;20028;-80
2024/03/06 12:11:39;;;;;;;5.63;3.65;;;;;;;;;;6324078;28;20492;-80
2024/03/06 12:14:40;;;;;;;5.83;4.03;;;;;;;;;;6325474;28;20066;-80
2024/03/06 12:17:51;;;;;;;5.23;4.20;;;;;;;;;;6325848;28;20039;-80
2024/03/06 12:20:51;;;;;;;;;;;;;;;;;;6323542;28;20028;-80
2024/03/06 12:24:01;;;;;;;6.85;3.40;;;;;;;;;;6324474;28;20283;-80
2024/03/06 12:27:04;;;;;;;6.07;3.65;;;;;;;;;;6323858;28;20036;-79
2024/03/06 12:30:08;;;;;;;4.65;4.13;;;;;;;;;;6325721;28;20020;-80
2024/03/06 12:33:09;;;;;;;6.45;3.90;;;;;;;;;;6326054;28;20114;-80
2024/03/06 12:36:12;;;;;;;4.72;4.20;;;;;;;;;;6324266;28;20456;-80
2024/03/06 12:39:17;;;;;;;5.65;4.07;;;;;;;;;;6313629;28;20028;-79
2024/03/06 12:42:17;;;;;;;7.15;5.38;;;;;;;;;;6325572;28;20239;-80
2024/03/06 12:45:18;;;;;;;5.27;4.40;;;;;;;;;;6323479;28;20028;-75
2024/03/06 12:48:18;;;;;;;5.45;4.53;;;;;;;;;;6306267;28;20032;-75
2024/03/06 12:51:18;;;;;;;6.33;4.40;;;;;;;;;;6322975;28;20070;-75
2024/03/06 12:54:19;;;;;;;5.50;4.30;;;;;;;;;;6323016;28;20073;-75
2024/03/06 12:57:19;;;;;;;6.03;4.43;;;;;;;;;;6306687;28;20028;-75
2024/03/06 13:00:19;;;;;;;5.80;4.67;;;;;;;;;;6320870;28;20482;-75
2024/03/06 13:03:19;;;;;;;5.20;4.53;;;;;;;;;;6320437;28;20035;-75
2024/03/06 13:06:21;;;;;;;5.27;4.23;;;;;;;;;;6322974;28;20018;-75
2024/03/06 13:09:23;;;;;;;5.65;4.47;;;;;;;;;;6323853;28;20024;-75
2024/03/06 13:12:23;;;;;;;5.97;4.53;;;;;;;;;;6323784;28;20023;-76
2024/03/06 13:15:23;;;;;;;5.87;4.63;;;;;;;;;;6323439;28;20028;-76
2024/03/06 13:18:23;;;;;;;5.60;4.20;;;;;;;;;;6323013;28;20350;-76
2024/03/06 13:21:24;;;;;;;7.13;4.73;;;;;;;;;;6322134;28;20427;-75
2024/03/06 13:24:24;;;;;;;8.10;4.60;;;;;;;;;;6322854;28;20381;-75
2024/03/06 13:27:24;;;;;;;6.20;4.50;;;;;;;;;;6322529;28;20027;-80
2024/03/06 13:30:25;;;;;;;5.80;4.40;;;;;;;;;;6294437;28;20490;-76
2024/03/06 13:33:27;;;;;;;7.28;4.55;;;;;;;;;;6296106;28;20070;-75
2024/03/06 13:36:28;;;;;;;6.25;4.55;;;;;;;;;;6321183;28;20032;-75
2024/03/06 13:39:28;;;;;;;6.07;4.37;;;;;;;;;;6322813;28;20043;-75
2024/03/06 13:42:28;;;;;;;5.33;4.40;;;;;;;;;;6324052;28;20027;-76
2024/03/06 13:45:28;;;;;;;6.07;4.43;;;;;;;;;;6321540;28;20125;-74
2024/03/06 13:48:29;;;;;;;6.13;4.23;;;;;;;;;;6305317;28;20419;-75
2024/03/06 13:51:29;;;;;;;6.50;4.57;;;;;;;;;;6303162;28;20031;-75
2024/03/06 13:54:30;;;;;;;5.63;4.20;;;;;;;;;;6321169;28;20119;-79
2024/03/06 13:57:33;;;;;;;5.70;4.33;;;;;;;;;;6311958;28;20028;-78
2024/03/06 14:00:35;;;;;;;6.20;3.85;;;;;;;;;;6301525;28;20389;-78
2024/03/06 14:03:37;;;;;;;;;;;;;;;;;;6316005;28;20020;-77
2024/03/06 14:06:37;;;;;;;3.70;3.10;;;;;;;;;;6317355;28;19960;-78
2024/03/06 14:09:38;;;;;;;4.73;3.63;;;;;;;;;;6322305;28;20376;-78
2024/03/06 14:12:38;;;;;;;4.60;3.63;;;;;;;;;;6323163;28;20457;-77
2024/03/06 14:15:38;;;;;;;4.10;3.47;;;;;;;;;;6322020;28;20024;-77
2024/03/06 14:18:38;;;;;;;5.40;3.93;;;;;;;;;;6324233;28;20371;-75
2024/03/06 14:21:39;;;;;;;4.70;3.90;;;;;;;;;;6322588;28;20484;-77
2024/03/06 14:24:39;;;;;;;5.13;4.00;;;;;;;;;;6321566;28;20564;-76
2024/03/06 14:27:39;;;;;;;5.93;3.93;;;;;;;;;;6322802;28;20397;-75
2024/03/06 14:30:40;;;;;;;6.53;4.33;;;;;;;;;;6324497;28;20103;-75
2024/03/06 14:33:40;;;;;;;4.63;4.17;;;;;;;;;;6315134;28;20491;-77
2024/03/06 14:36:42;;;;;;;6.28;4.35;;;;;;;;;;6320500;28;20601;-76
2024/03/06 14:39:43;;;;;;;;;;;;;;;;;;6320484;28;20473;-77
2024/03/06 14:42:44;;;;;;;3.47;2.83;;;;;;;;;;6323643;28;19912;-77
2024/03/06 14:45:47;;;;;;;4.38;3.85;;;;;;;;;;6331307;28;20457;-75
2024/03/06 14:48:47;;;;;;;5.32;3.92;;;;;;;;;;6328911;28;20436;-77
2024/03/06 14:51:47;;;;;;;5.00;3.83;;;;;;;;;;6327994;28;20070;-76
2024/03/06 14:54:48;;;;;;;4.77;3.80;;;;;;;;;;6308245;28;20055;-76
2024/03/06 14:57:48;;;;;;;5.03;3.83;;;;;;;;;;6328613;28;20028;-76
2024/03/06 15:00:48;;;;;;;6.17;4.10;;;;;;;;;;6330359;28;20489;-76
2024/03/06 15:03:49;;;;;;;6.63;4.33;;;;;;;;;;6328398;28;20047;-76
2024/03/06 15:06:50;;;;;;;4.00;3.53;;;;;;;;;;6326607;28;20032;-76
2024/03/06 15:09:50;;;;;;;6.20;3.75;;;;;;;;;;6326998;28;20488;-76
2024/03/06 15:12:50;;;;;;;5.37;3.87;;;;;;;;;;6328891;28;20039;-77
2024/03/06 15:15:50;;;;;;;4.97;3.83;;;;;;;;;;6330917;28;20027;-77
2024/03/06 15:18:53;;;;;;;5.23;3.87;;;;;;;;;;6330803;28;20020;-77
2024/03/06 15:21:53;;;;;;;5.30;3.60;;;;;;;;;;6303456;28;20036;-77
2024/03/06 15:24:54;;;;;;;6.23;3.43;;;;;;;;;;6304542;28;20090;-77
2024/03/06 15:27:54;;;;;;;4.57;3.47;;;;;;;;;;6314789;28;20023;-77
2024/03/06 15:30:56;;;;;;;5.43;3.77;;;;;;;;;;6330256;28;20028;-77
2024/03/06 15:33:56;;;;;;;6.55;4.25;;;;;;;;;;6329651;28;20023;-77
2024/03/06 15:36:56;;;;;;;4.80;3.90;;;;;;;;;;6328653;28;20065;-77
2024/03/06 15:39:57;;;;;;;5.37;3.47;;;;;;;;;;6315818;28;20028;-77
2024/03/06 15:42:57;;;;;;;4.47;3.92;;;;;;;;;;6311649;28;20020;-76
2024/03/06 15:45:57;;;;;;;6.47;3.87;;;;;;;;;;6327124;28;20102;-77
2024/03/06 15:48:58;;;;;;;5.27;3.90;;;;;;;;;;6329091;28;20051;-77
2024/03/06 15:51:58;;;;;;;4.87;3.87;;;;;;;;;;6327081;28;20055;-77
2024/03/06 15:54:58;;;;;;;5.60;3.80;;;;;;;;;;6325047;28;20035;-78
2024/03/06 15:57:58;;;;;;;6.83;3.97;;;;;;;;;;6324751;28;20137;-77
2024/03/06 16:00:59;;;;;;;4.17;3.70;;;;;;;;;;6319514;28;20036;-77
2024/03/06 16:03:59;;;;;;;4.67;3.63;;;;;;;;;;6317298;28;20032;-77
2024/03/06 16:06:59;;;;;;;6.20;3.70;;;;;;;;;;6323723;28;20062;-77
2024/03/06 16:09:59;;;;;;;5.40;4.10;;;;;;;;;;6323779;28;20086;-77
2024/03/06 16:12:59;;;;;;;5.17;3.87;;;;;;;;;;6326251;28;20093;-77
2024/03/06 16:16:00;;;;;;;4.47;3.57;;;;;;;;;;6325682;28;20035;-76
2024/03/06 16:19:00;;;;;;;4.97;3.63;;;;;;;;;;6323072;28;20036;-77
2024/03/06 16:22:02;;;;;;;5.30;3.63;;;;;;;;;;6323793;28;20080;-77
2024/03/06 16:25:02;;;;;;;5.20;4.03;;;;;;;;;;6323170;28;20044;-76
2024/03/06 16:28:03;;;;;;;5.43;4.17;;;;;;;;;;6324161;28;20074;-75
2024/03/06 16:31:04;;;;;;;6.03;4.13;;;;;;;;;;6319874;28;20023;-76
2024/03/06 16:34:04;;;;;;;5.28;3.78;;;;;;;;;;6323926;28;20532;-76
2024/03/06 16:37:05;;;;;;;6.37;4.47;;;;;;;;;;6303221;28;20123;-76
2024/03/06 16:40:06;;;;;;;4.38;3.60;;;;;;;;;;6303185;28;20119;-76
2024/03/06 16:43:07;;;;;;;4.30;3.72;;;;;;;;;;6321793;28;20080;-76
2024/03/06 16:46:07;;;;;;;6.27;3.90;;;;;;;;;;6312616;28;20032;-76
2024/03/06 16:49:07;;;;;;;5.83;3.83;;;;;;;;;;6316497;28;20024;-77
2024/03/06 16:52:07;;;;;;;4.20;3.57;;;;;;;;;;6316408;28;20024;-76
2024/03/06 16:55:08;;;;;;;5.40;3.70;;;;;;;;;;6310887;28;20048;-76
2024/03/06 16:58:08;;;;;;;5.87;3.70;;;;;;;;;;6324975;28;20027;-76
2024/03/06 17:01:08;;;;;;;4.70;3.47;;;;;;;;;;6309821;28;20025;-76
2024/03/06 17:04:09;;;;;;;4.67;3.63;;;;;;;;;;6315646;28;20024;-75
2024/03/06 17:07:09;;;;;;;6.83;4.50;;;;;;;;;;6319086;28;20436;-76
2024/03/06 17:10:09;;;;;;;5.37;3.73;;;;;;;;;;6322908;28;20019;-75
2024/03/06 17:13:10;;;;;;;7.00;4.43;;;;;;;;;;6323881;28;20027;-74
2024/03/06 17:16:10;;;;;;;5.80;4.07;;;;;;;;;;6306563;28;20029;-74
2024/03/06 17:19:10;;;;;;;7.53;4.10;;;;;;;;;;6321155;28;20078;-74
2024/03/06 17:22:11;;;;;;;4.90;3.80;;;;;;;;;;6318248;28;20032;-74
2024/03/06 17:25:11;;;;;;;6.72;4.40;;;;;;;;;;6322881;28;20048;-74
2024/03/06 17:28:12;;;;;;;5.07;3.70;;;;;;;;;;6316967;28;20024;-76
2024/03/06 17:31:12;;;;;;;4.25;3.60;;;;;;;;;;6318390;28;20036;-75
2024/03/06 17:34:13;;;;;;;5.37;3.90;;;;;;;;;;6319205;28;20032;-78
2024/03/06 17:37:13;;;;;;;6.23;4.00;;;;;;;;;;6317502;28;23580;-77
2024/03/06 17:40:13;;;;;;;6.83;3.73;;;;;;;;;;6319276;28;20043;-77
2024/03/06 17:43:14;;;;;;;5.53;4.30;;;;;;;;;;6315708;28;20027;-80
2024/03/06 17:46:14;;;;;;;6.30;4.80;;;;;;;;;;6318220;28;20031;-78
2024/03/06 17:49:14;;;;;;;7.80;4.70;;;;;;;;;;6316617;28;20443;-77
2024/03/06 17:52:15;;;;;;;5.33;4.23;;;;;;;;;;6316558;28;20024;-76
2024/03/06 17:55:15;;;;;;;5.30;4.00;;;;;;;;;;6317392;28;20012;-77
2024/03/06 17:58:15;;;;;;;6.53;4.00;;;;;;;;;;6321351;28;20020;-77
2024/03/06 18:01:15;;;;;;;5.23;4.03;;;;;;;;;;6316967;28;20050;-77
2024/03/06 18:04:16;;;;;;;4.27;3.73;;;;;;;;;;6317982;28;20542;-77